Time;durP1;ratioP1;P1;durP2;ratioP2;P2;SDS_P1;SDS_P2;PMS_P1;PMS_P2;Temp;Humidity;BMP_temperature;BMP_pressure;BME280_temperature;BME280_humidity;BME280_pressure;Samples;Min_cycle;Max_cycle;Signal;HPM_P1;HPM_P2
2023/10/19 00:00:36;;;;;;;;;;;;;;;11.17;100.00;99226.66;5079089;28;20349;-93
2023/10/19 00:03:06;;;;;;;;;;;;;;;11.19;100.00;99231.84;5062209;28;20260;-94
2023/10/19 00:05:34;;;;;;;;;;;;;;;11.21;100.00;99227.47;5076405;28;19920;-94
2023/10/19 00:08:05;;;;;;;;;;;;;;;11.22;100.00;99232.69;5062780;28;19963;-94
2023/10/19 00:10:33;;;;;;;;;;;;;;;11.25;100.00;99218.78;5075526;28;19916;-94
2023/10/19 00:13:05;;;;;;;;;;;;;;;11.25;100.00;99230.09;5062250;28;19984;-94
2023/10/19 00:15:39;;;;;;;;;;;;;;;11.28;100.00;99239.59;5086993;28;19969;-94
2023/10/19 00:18:26;;;;;;;;;;;;;;;11.34;100.00;99243.94;5083008;28;19912;-95
2023/10/19 00:23:24;;;;;;;;;;;;;;;11.38;100.00;99225.63;5079586;28;19995;-93
2023/10/19 00:25:50;;;;;;;;;;;;;;;11.41;100.00;99224.75;5057896;28;19917;-93
2023/10/19 00:28:17;;;;;;;;;;;;;;;11.42;100.00;99221.28;5079314;28;19913;-94
2023/10/19 00:30:42;;;;;;;;;;;;;;;11.45;100.00;99218.66;5058878;28;19923;-94
2023/10/19 00:33:16;;;;;;;;;;;;;;;11.48;100.00;99216.91;5057435;28;19921;-93
2023/10/19 00:35:46;;;;;;;;;;;;;;;11.51;100.00;99220.38;5054207;28;19916;-93
2023/10/19 00:43:36;;;;;;;;;;;;;;;11.63;100.00;99220.28;5067225;28;19916;-94
2023/10/19 00:46:03;;;;;;;;;;;;;;;11.64;100.00;99217.69;5043318;28;19916;-92
2023/10/19 00:48:28;;;;;;;;;;;;;;;11.66;100.00;99215.91;5066901;28;19920;-94
2023/10/19 00:51:06;;;;;;;;;;;;;;;11.73;100.00;99210.63;5051033;28;19936;-94
2023/10/19 00:53:32;;;;;;;;;;;;;;;11.73;100.00;99205.41;5036517;28;20379;-93
2023/10/19 00:55:58;;;;;;;;;;;;;;;11.74;100.00;99213.22;5043832;28;19996;-94
2023/10/19 00:58:29;;;;;;;;;;;;;;;11.81;100.00;99212.31;5049480;28;19921;-93
2023/10/19 01:00:55;;;;;;;;;;;;;;;11.91;100.00;99213.09;5044267;28;19925;-94
2023/10/19 01:03:20;;;;;;;;;;;;;;;11.99;100.00;99203.50;5048992;28;19925;-95
2023/10/19 01:05:48;;;;;;;;;;;;;;;12.05;100.00;99207.81;5059384;28;19924;-94
2023/10/19 01:08:23;;;;;;;;;;;;;;;12.14;100.00;99197.28;5053285;28;19925;-94
2023/10/19 01:10:51;;;;;;;;;;;;;;;12.21;100.00;99203.31;5037016;28;19921;-94
2023/10/19 01:13:17;;;;;;;;;;;;;;;12.23;100.00;99212.00;5045787;28;19970;-93
2023/10/19 01:15:42;;;;;;;;;;;;;;;12.26;100.00;99214.56;5065690;28;19920;-94
2023/10/19 01:18:10;;;;;;;;;;;;;;;12.37;100.00;99208.38;5062368;28;20349;-95
2023/10/19 01:20:50;;;;;;;;;;;;;;;12.44;100.00;99208.31;5053406;28;19917;-94
2023/10/19 01:23:27;;;;;;;;;;;;;;;12.51;100.00;99206.47;5061906;28;19923;-95
2023/10/19 01:28:28;;;;;;;;;;;;;;;12.63;100.00;99195.03;5062303;28;19917;-94
2023/10/19 01:30:53;;;;;;;;;;;;;;;12.69;100.00;99198.44;5039919;28;19920;-94
2023/10/19 01:33:18;;;;;;;;;;;;;;;12.75;100.00;99191.44;5047494;28;19943;-95
2023/10/19 01:38:30;;;;;;;;;;;;;;;12.83;100.00;99197.41;5073111;28;19938;-95
2023/10/19 01:40:59;;;;;;;;;;;;;;;12.86;100.00;99193.00;5053704;28;19955;-94
2023/10/19 01:43:25;;;;;;;;;;;;;;;12.86;100.00;99187.78;5056059;28;19916;-94
2023/10/19 01:45:56;;;;;;;;;;;;;;;12.90;100.00;99190.34;5047436;28;19927;-95
2023/10/19 01:48:33;;;;;;;;;;;;;;;12.90;100.00;99188.59;5054316;28;19917;-95
2023/10/19 01:50:58;;;;;;;;;;;;;;;12.94;100.00;99190.28;5059996;28;19920;-94
2023/10/19 01:53:25;;;;;;;;;;;;;;;12.97;100.00;99190.25;5073459;28;20007;-94
2023/10/19 01:55:57;;;;;;;;;;;;;;;12.96;100.00;99188.53;5056218;28;20362;-94
2023/10/19 01:58:24;;;;;;;;;;;;;;;12.99;100.00;99185.88;5073921;28;19935;-94
2023/10/19 02:00:50;;;;;;;;;;;;;;;13.02;100.00;99193.69;5060999;28;19920;-94
2023/10/19 02:03:16;;;;;;;;;;;;;;;13.07;100.00;99195.38;5056406;28;20347;-94
2023/10/19 02:05:42;;;;;;;;;;;;;;;13.09;100.00;99190.97;5058332;28;19924;-94
2023/10/19 02:08:08;;;;;;;;;;;;;;;13.14;100.00;99199.66;5073243;28;19931;-94
2023/10/19 02:10:37;;;;;;;;;;;;;;;13.14;100.00;99197.03;5055967;28;19928;-95
2023/10/19 02:13:06;;;;;;;;;;;;;;;13.16;100.00;99190.00;5055254;28;20386;-93
2023/10/19 02:15:34;;;;;;;;;;;;;;;13.18;100.00;99191.72;5059093;28;19921;-94
2023/10/19 02:18:01;;;;;;;;;;;;;;;13.25;100.00;99194.25;5055761;28;19943;-94
2023/10/19 02:20:26;;;;;;;;;;;;;;;13.28;100.00;99189.84;5055816;28;19995;-94
2023/10/19 02:22:52;;;;;;;;;;;;;;;13.31;100.00;99174.13;5055040;28;19948;-94
2023/10/19 02:25:17;;;;;;;;;;;;;;;13.34;100.00;99178.44;5055796;28;20366;-94
2023/10/19 02:27:44;;;;;;;;;;;;;;;13.37;100.00;99179.28;5073701;28;20603;-95
2023/10/19 02:30:11;;;;;;;;;;;;;;;13.39;100.00;99181.88;5072523;28;19916;-95
2023/10/19 02:32:36;;;;;;;;;;;;;;;13.41;100.00;99184.47;5057196;28;19928;-94
2023/10/19 02:35:02;;;;;;;;;;;;;;;13.45;100.00;99184.38;5075025;28;19927;-94
2023/10/19 02:37:28;;;;;;;;;;;;;;;13.49;100.00;99187.84;5073543;28;19962;-95
2023/10/19 02:39:53;;;;;;;;;;;;;;;13.51;100.00;99186.94;5055554;28;20282;-94
2023/10/19 02:42:18;;;;;;;;;;;;;;;13.55;100.00;99177.28;5056563;28;19916;-94
2023/10/19 02:44:43;;;;;;;;;;;;;;;13.56;100.00;99174.63;5072061;28;20378;-94
2023/10/19 02:47:09;;;;;;;;;;;;;;;13.58;100.00;99182.44;5055051;28;20289;-95
2023/10/19 02:49:38;;;;;;;;;;;;;;;13.62;100.00;99178.91;5055638;28;19944;-94
2023/10/19 02:52:04;;;;;;;;;;;;;;;13.64;100.00;99178.88;5056470;28;20447;-94
2023/10/19 02:54:32;;;;;;;;;;;;;;;13.65;100.00;99181.47;5053332;28;19921;-94
2023/10/19 02:56:58;;;;;;;;;;;;;;;13.67;100.00;99179.72;5073249;28;19952;-95
2023/10/19 02:59:24;;;;;;;;;;;;;;;13.70;100.00;99178.78;5055461;28;19956;-94
2023/10/19 03:01:50;;;;;;;;;;;;;;;13.69;100.00;99175.31;5074117;28;19927;-95
2023/10/19 03:04:16;;;;;;;;;;;;;;;13.69;100.00;99172.69;5060392;28;19916;-94
2023/10/19 03:06:41;;;;;;;;;;;;;;;13.71;100.00;99172.66;5089024;28;19916;-94
2023/10/19 03:09:22;;;;;;;;;;;;;;;13.74;100.00;99169.97;5078860;28;20491;-93
2023/10/19 03:11:52;;;;;;;;;;;;;;;13.75;100.00;99174.34;5053457;28;19921;-94
2023/10/19 03:14:18;;;;;;;;;;;;;;;13.73;100.00;99165.66;5059913;28;19916;-94
2023/10/19 03:16:43;;;;;;;;;;;;;;;13.71;100.00;99173.50;5074100;28;20325;-94
2023/10/19 03:19:08;;;;;;;;;;;;;;;13.69;100.00;99167.44;5054372;28;19959;-94
2023/10/19 03:21:41;;;;;;;;;;;;;;;13.68;100.00;99168.31;5055895;28;19970;-95
2023/10/19 03:24:11;;;;;;;;;;;;;;;13.67;100.00;99170.97;5054610;28;19916;-95
2023/10/19 03:26:38;;;;;;;;;;;;;;;13.68;100.00;99159.63;5061337;28;19912;-94
2023/10/19 03:29:13;;;;;;;;;;;;;;;13.67;100.00;99161.38;5059327;28;20404;-95
2023/10/19 03:31:43;;;;;;;;;;;;;;;13.67;100.00;99160.50;5067410;28;19925;-95
2023/10/19 03:34:09;;;;;;;;;;;;;;;13.68;100.00;99157.88;5065733;28;19920;-94
2023/10/19 03:36:35;;;;;;;;;;;;;;;13.68;100.00;99154.38;5087707;28;19916;-94
2023/10/19 03:39:11;;;;;;;;;;;;;;;13.67;100.00;99142.19;5059058;28;19924;-95
2023/10/19 03:41:36;;;;;;;;;;;;;;;13.67;100.00;99155.28;5084345;28;19916;-95
2023/10/19 03:44:03;;;;;;;;;;;;;;;13.63;100.00;99151.84;5061161;28;20062;-94
2023/10/19 03:46:28;;;;;;;;;;;;;;;13.66;100.00;99150.94;5086641;28;19923;-95
2023/10/19 03:49:10;;;;;;;;;;;;;;;13.67;100.00;99150.03;5075237;28;19917;-94
2023/10/19 03:51:40;;;;;;;;;;;;;;;13.67;100.00;99156.16;5060994;28;19921;-95
2023/10/19 03:54:20;;;;;;;;;;;;;;;13.66;100.00;99151.81;5077485;28;19916;-94
2023/10/19 03:56:45;;;;;;;;;;;;;;;13.66;100.00;99153.56;5068042;28;20045;-94
2023/10/19 03:59:12;;;;;;;;;;;;;;;13.61;100.00;99148.38;5063181;28;19936;-94
2023/10/19 04:01:37;;;;;;;;;;;;;;;13.60;100.00;99146.69;5058988;28;19917;-95
2023/10/19 04:04:02;;;;;;;;;;;;;;;13.63;100.00;99146.63;5055424;28;19919;-95
2023/10/19 04:06:28;;;;;;;;;;;;;;;13.62;100.00;99142.25;5058298;28;19913;-94
2023/10/19 04:08:53;;;;;;;;;;;;;;;13.61;100.00;99140.53;5083407;28;19919;-94
2023/10/19 04:11:21;;;;;;;;;;;;;;;13.62;100.00;99137.03;5058193;28;20609;-94
2023/10/19 04:13:47;;;;;;;;;;;;;;;13.56;100.00;99132.75;5063220;28;19924;-94
2023/10/19 04:16:12;;;;;;;;;;;;;;;13.55;100.00;99141.50;5075877;28;20379;-94
2023/10/19 04:18:38;;;;;;;;;;;;;;;13.54;100.00;99138.91;5058509;28;19916;-95
2023/10/19 04:21:04;;;;;;;;;;;;;;;13.49;100.00;99136.34;5058059;28;20344;-94
2023/10/19 04:23:34;;;;;;;;;;;;;;;13.46;100.00;99141.66;5066096;28;19920;-94
2023/10/19 04:26:04;;;;;;;;;;;;;;;13.42;100.00;99133.88;5059954;28;19969;-95
2023/10/19 04:28:44;;;;;;;;;;;;;;;13.40;100.00;99133.91;5074830;28;19921;-94
2023/10/19 04:31:13;;;;;;;;;;;;;;;13.42;100.00;99133.88;5058309;28;19928;-94
2023/10/19 04:33:38;;;;;;;;;;;;;;;13.44;100.00;99137.31;5058172;28;20057;-94
2023/10/19 04:36:08;;;;;;;;;;;;;;;13.44;100.00;99138.19;5054642;28;19951;-94
2023/10/19 04:38:33;;;;;;;;;;;;;;;13.44;100.00;99146.06;5057885;28;19978;-94
2023/10/19 04:41:08;;;;;;;;;;;;;;;13.47;100.00;99140.78;5053103;28;19924;-94
2023/10/19 04:43:35;;;;;;;;;;;;;;;13.48;100.00;99144.25;5056542;28;19924;-95
2023/10/19 04:46:07;;;;;;;;;;;;;;;13.46;100.00;99151.25;5075639;28;19916;-94
2023/10/19 04:48:32;;;;;;;;;;;;;;;13.45;100.00;99139.91;5072751;28;20015;-94
2023/10/19 04:50:58;;;;;;;;;;;;;;;13.43;100.00;99144.31;5086564;28;20000;-94
2023/10/19 04:53:23;;;;;;;;;;;;;;;13.42;100.00;99146.97;5080431;28;19916;-94
2023/10/19 04:55:48;;;;;;;;;;;;;;;13.42;100.00;99152.19;5075165;28;19917;-94
2023/10/19 04:58:14;;;;;;;;;;;;;;;13.42;100.00;99146.97;5057375;28;20370;-95
2023/10/19 05:00:39;;;;;;;;;;;;;;;13.42;100.00;99150.44;5059343;28;19922;-94
2023/10/19 05:03:04;;;;;;;;;;;;;;;13.41;100.00;99158.31;5060070;28;19923;-95
2023/10/19 05:05:29;;;;;;;;;;;;;;;13.42;100.00;99157.41;5061267;28;19908;-95
2023/10/19 05:07:54;;;;;;;;;;;;;;;13.41;100.00;99153.06;5058588;28;19965;-94
2023/10/19 05:10:20;;;;;;;;;;;;;;;13.38;100.00;99154.84;5056857;28;19924;-94
2023/10/19 05:12:45;;;;;;;;;;;;;;;13.36;100.00;99151.38;5063276;28;19916;-95
2023/10/19 05:15:10;;;;;;;;;;;;;;;13.37;100.00;99153.13;5069930;28;19920;-94
2023/10/19 05:17:35;;;;;;;;;;;;;;;13.37;100.00;99153.13;5057116;28;19961;-95
2023/10/19 05:20:01;;;;;;;;;;;;;;;13.37;100.00;99150.50;5071929;28;19912;-95
2023/10/19 05:22:29;;;;;;;;;;;;;;;13.36;100.00;99159.22;5061306;28;20051;-95
2023/10/19 05:24:54;;;;;;;;;;;;;;;13.36;100.00;99155.75;5094714;28;19924;-94
2023/10/19 05:27:19;;;;;;;;;;;;;;;13.36;100.00;99159.22;5058507;28;19917;-95
2023/10/19 05:29:45;;;;;;;;;;;;;;;13.35;100.00;99157.53;5088360;28;19939;-95
2023/10/19 05:32:10;;;;;;;;;;;;;;;13.33;100.00;99156.63;5059847;28;19943;-95
2023/10/19 05:34:36;;;;;;;;;;;;;;;13.33;100.00;99155.78;5059399;28;19979;-94
2023/10/19 05:37:02;;;;;;;;;;;;;;;13.33;100.00;99154.00;5056571;28;19913;-95
2023/10/19 05:39:28;;;;;;;;;;;;;;;13.32;100.00;99157.50;5056574;28;19928;-95
2023/10/19 05:41:54;;;;;;;;;;;;;;;13.29;100.00;99167.16;5051741;28;20019;-95
2023/10/19 05:44:19;;;;;;;;;;;;;;;13.30;100.00;99169.75;5056707;28;19920;-95
2023/10/19 05:46:44;;;;;;;;;;;;;;;13.31;100.00;99168.00;5056954;28;20386;-95
2023/10/19 05:49:09;;;;;;;;;;;;;;;13.31;100.00;99168.88;5057778;28;19995;-95
2023/10/19 05:51:35;;;;;;;;;;;;;;;13.33;100.00;99169.72;5061342;28;19912;-94
2023/10/19 05:54:03;;;;;;;;;;;;;;;13.33;100.00;99167.09;5058056;28;19928;-95
2023/10/19 05:56:30;;;;;;;;;;;;;;;13.35;100.00;99172.34;5056254;28;19904;-95
2023/10/19 05:58:55;;;;;;;;;;;;;;;13.33;100.00;99169.72;5056729;28;19985;-95
2023/10/19 06:01:22;;;;;;;;;;;;;;;13.34;100.00;99175.84;5055939;28;20336;-95
2023/10/19 06:03:47;;;;;;;;;;;;;;;13.32;100.00;99178.44;5057478;28;19935;-95
2023/10/19 06:06:12;;;;;;;;;;;;;;;13.32;100.00;99178.44;5057339;28;19912;-95
2023/10/19 06:08:37;;;;;;;;;;;;;;;13.33;100.00;99172.31;5056274;28;20008;-95
2023/10/19 06:11:04;;;;;;;;;;;;;;;13.33;100.00;99174.09;5055231;28;19917;-95
2023/10/19 06:13:29;;;;;;;;;;;;;;;13.32;100.00;99175.81;5055708;28;20101;-95
2023/10/19 06:15:55;;;;;;;;;;;;;;;13.31;100.00;99183.69;5058393;28;19955;-95
2023/10/19 06:18:20;;;;;;;;;;;;;;;13.31;100.00;99183.69;5061297;28;20366;-95
2023/10/19 06:20:46;;;;;;;;;;;;;;;13.30;100.00;99188.06;5089010;28;19997;-95
2023/10/19 06:23:11;;;;;;;;;;;;;;;13.30;100.00;99187.22;5061814;28;19920;-95
2023/10/19 06:25:37;;;;;;;;;;;;;;;13.29;100.00;99186.34;5058288;28;20316;-95
2023/10/19 06:28:03;;;;;;;;;;;;;;;13.29;100.00;99180.25;5077435;28;20604;-95
2023/10/19 06:30:29;;;;;;;;;;;;;;;13.28;100.00;99174.16;5060372;28;19970;-95
2023/10/19 06:33:00;;;;;;;;;;;;;;;13.29;100.00;99180.25;5054240;28;20408;-95
2023/10/19 06:35:25;;;;;;;;;;;;;;;13.27;100.00;99182.88;5073082;28;19966;-95
2023/10/19 06:37:53;;;;;;;;;;;;;;;13.27;100.00;99188.13;5057781;28;19921;-95
2023/10/19 06:40:18;;;;;;;;;;;;;;;13.29;100.00;99198.56;5047404;28;20011;-95
2023/10/19 06:42:45;;;;;;;;;;;;;;;13.28;100.00;99197.72;5061690;28;20027;-96
2023/10/19 06:45:13;;;;;;;;;;;;;;;13.28;100.00;99200.31;5063961;28;19958;-95
2023/10/19 06:47:39;;;;;;;;;;;;;;;13.27;100.00;99193.34;5062634;28;19917;-95
2023/10/19 06:50:07;;;;;;;;;;;;;;;13.30;100.00;99197.69;5056542;28;19954;-95
2023/10/19 06:52:32;;;;;;;;;;;;;;;13.30;100.00;99193.31;5060605;28;19917;-95
2023/10/19 06:54:57;;;;;;;;;;;;;;;13.30;100.00;99193.31;5058518;28;19969;-95
2023/10/19 06:57:23;;;;;;;;;;;;;;;13.32;100.00;99206.34;5087477;28;20015;-95
2023/10/19 06:59:48;;;;;;;;;;;;;;;13.33;100.00;99197.63;5055475;28;19924;-95
2023/10/19 07:02:13;;;;;;;;;;;;;;;13.35;100.00;99201.13;5055683;28;19917;-95
2023/10/19 07:04:38;;;;;;;;;;;;;;;13.34;100.00;99204.59;5055363;28;20492;-95
2023/10/19 07:07:04;;;;;;;;;;;;;;;13.34;100.00;99199.38;5053077;28;19916;-95
2023/10/19 07:09:29;;;;;;;;;;;;;;;13.35;100.00;99219.44;5055088;28;19920;-95
2023/10/19 07:11:54;;;;;;;;;;;;;;;13.34;100.00;99208.09;5055372;28;19926;-95
2023/10/19 07:14:22;;;;;;;;;;;;;;;13.37;100.00;99210.69;5055435;28;19917;-95
2023/10/19 07:16:47;;;;;;;;;;;;;;;13.39;100.00;99208.03;5054525;28;19942;-95
2023/10/19 07:19:14;;;;;;;;;;;;;;;13.42;100.00;99209.75;5055366;28;19917;-95
2023/10/19 07:21:42;;;;;;;;;;;;;;;13.44;100.00;99211.47;5055897;28;19963;-95
2023/10/19 07:24:10;;;;;;;;;;;;;;;13.46;100.00;99217.53;5055617;28;19981;-95
2023/10/19 07:26:43;;;;;;;;;;;;;;;13.48;100.00;99214.88;5055780;28;20336;-95
2023/10/19 07:29:10;;;;;;;;;;;;;;;13.48;100.00;99207.03;5057249;28;19956;-95
2023/10/19 07:31:35;;;;;;;;;;;;;;;13.51;100.00;99213.09;5091915;28;19916;-94
2023/10/19 07:34:00;;;;;;;;;;;;;;;13.51;100.00;99202.63;5038762;28;19921;-96
2023/10/19 07:36:26;;;;;;;;;;;;;;;13.52;100.00;99206.09;5031171;28;19971;-94
2023/10/19 07:38:51;;;;;;;;;;;;;;;13.55;100.00;99195.59;5033471;28;19912;-95
2023/10/19 07:41:16;;;;;;;;;;;;;;;13.58;100.00;99203.38;5035754;28;19917;-95
2023/10/19 07:43:43;;;;;;;;;;;;;;;13.59;100.00;99199.03;5053310;28;19916;-95
2023/10/19 07:46:08;;;;;;;;;;;;;;;13.60;100.00;99204.25;5035137;28;19913;-94
2023/10/19 07:48:33;;;;;;;;;;;;;;;13.61;100.00;99200.72;5052007;28;19924;-94
2023/10/19 07:50:59;;;;;;;;;;;;;;;13.64;100.00;99198.06;5062920;28;19967;-94
2023/10/19 07:53:24;;;;;;;;;;;;;;;13.67;100.00;99207.63;5048477;28;19932;-94
2023/10/19 07:55:50;;;;;;;;;;;;;;;13.70;100.00;99195.38;5051609;28;20007;-95
2023/10/19 07:58:15;;;;;;;;;;;;;;;13.71;100.00;99199.69;5051648;28;19974;-94
2023/10/19 08:00:42;;;;;;;;;;;;;;;13.74;100.00;99194.44;5042093;28;19917;-95
2023/10/19 08:03:08;;;;;;;;;;;;;;;13.77;100.00;99198.72;5052616;28;19917;-94
2023/10/19 08:05:34;;;;;;;;;;;;;;;13.80;100.00;99196.09;5052654;28;19912;-94
2023/10/19 08:08:00;;;;;;;;;;;;;;;13.85;100.00;99190.78;5043134;28;20058;-95
2023/10/19 08:10:26;;;;;;;;;;;;;;;13.88;100.00;99193.34;5036541;28;20407;-95
2023/10/19 08:12:52;;;;;;;;;;;;;;;13.89;100.00;99187.22;5043891;28;20011;-94
2023/10/19 08:15:18;;;;;;;;;;;;;;;13.90;100.00;99184.56;5029109;28;19952;-94
2023/10/19 08:17:47;;;;;;;;;;;;;;;13.91;100.00;99183.66;5078091;28;19999;-94
2023/10/19 08:20:16;;;;;;;;;;;;;;;13.94;100.00;99177.50;5052042;28;19913;-94
2023/10/19 08:22:47;;;;;;;;;;;;;;;13.96;100.00;99169.63;5057952;28;19935;-95
2023/10/19 08:25:14;;;;;;;;;;;;;;;13.99;100.00;99174.81;5038668;28;19917;-95
2023/10/19 08:27:39;;;;;;;;;;;;;;;14.02;100.00;99170.41;5038413;28;20336;-95
2023/10/19 08:30:08;;;;;;;;;;;;;;;14.08;100.00;99172.91;5060566;28;19917;-94
2023/10/19 08:32:34;;;;;;;;;;;;;;;14.12;100.00;99180.69;5054488;28;19926;-94
2023/10/19 08:35:00;;;;;;;;;;;;;;;14.15;100.00;99172.78;5078296;28;19991;-95
2023/10/19 08:37:26;;;;;;;;;;;;;;;14.19;100.00;99180.59;5082716;28;19924;-95
2023/10/19 08:39:51;;;;;;;;;;;;;;;14.24;100.00;99175.25;5078307;28;19961;-94
2023/10/19 08:42:16;;;;;;;;;;;;;;;14.25;100.00;99176.97;5095186;28;20010;-94
2023/10/19 08:44:42;;;;;;;;;;;;;;;14.25;100.00;99171.72;5077113;28;19919;-94
2023/10/19 08:47:08;;;;;;;;;;;;;;;14.26;100.00;99170.84;5078340;28;19920;-94
2023/10/19 08:49:33;;;;;;;;;;;;;;;14.27;100.00;99168.19;5075674;28;19964;-95
2023/10/19 08:52:00;;;;;;;;;;;;;;;14.35;100.00;99173.31;5078188;28;19944;-94
2023/10/19 08:54:25;;;;;;;;;;;;;;;14.41;100.00;99160.06;5095200;28;20450;-95
2023/10/19 08:56:51;;;;;;;;;;;;;;;14.49;100.00;99169.53;5084103;28;19947;-94
2023/10/19 08:59:17;;;;;;;;;;;;;;;14.53;100.00;99173.84;5082551;28;19912;-95
2023/10/19 09:01:45;;;;;;;;;;;;;;;14.62;100.00;99172.81;5091581;28;19919;-94
2023/10/19 09:04:11;;;;;;;;;;;;;;;14.69;100.00;99175.28;5074568;28;19912;-95
2023/10/19 09:06:43;;;;;;;;;;;;;;;14.76;100.00;99173.41;5110189;28;20014;-94
2023/10/19 09:09:13;;;;;;;;;;;;;;;14.80;100.00;99161.94;5062180;28;19912;-94
2023/10/19 09:11:39;;;;;;;;;;;;;;;14.87;100.00;99162.69;5079599;28;19916;-95
2023/10/19 09:14:04;;;;;;;;;;;;;;;14.95;100.00;99166.03;5078371;28;19935;-95
2023/10/19 09:16:30;;;;;;;;;;;;;;;14.98;100.00;99151.97;5078069;28;20374;-95
2023/10/19 09:18:56;;;;;;;;;;;;;;;15.04;100.00;99151.84;5086601;28;19919;-94
2023/10/19 09:21:24;;;;;;;;;;;;;;;15.13;100.00;99143.75;5086867;28;19916;-94
2023/10/19 09:23:54;;;;;;;;;;;;;;;15.20;100.00;99139.25;5077834;28;19912;-94
2023/10/19 09:26:21;;;;;;;;;;;;;;;15.22;100.00;99142.69;5085914;28;19920;-95
2023/10/19 09:28:48;;;;;;;;;;;;;;;15.24;100.00;99141.75;5086541;28;20004;-95
2023/10/19 09:31:13;;;;;;;;;;;;;;;15.25;100.00;99142.59;5078143;28;19982;-94
2023/10/19 09:33:44;;;;;;;;;;;;;;;15.28;100.00;99139.94;5077569;28;20329;-94
2023/10/19 09:36:13;;;;;;;;;;;;;;;15.35;100.00;99144.16;5093087;28;20011;-95
2023/10/19 09:38:49;;;;;;;;;;;;;;;15.44;100.00;99143.91;5073049;28;19917;-95
2023/10/19 09:41:15;;;;;;;;;;;;;;;15.47;100.00;99141.22;5057769;28;19916;-94
2023/10/19 09:43:45;;;;;;;;;;;;;;;15.50;100.00;99152.53;5070018;28;19912;-95
2023/10/19 09:46:12;;;;;;;;;;;;;;;15.55;100.00;99150.66;5094765;28;19912;-95
2023/10/19 09:48:48;;;;;;;;;;;;;;;15.61;100.00;99148.78;5094651;28;19904;-95
2023/10/19 09:51:13;;;;;;;;;;;;;;;15.64;100.00;99145.19;5088773;28;20582;-95
2023/10/19 09:53:39;;;;;;;;;;;;;;;15.66;100.00;99148.66;5057558;28;19916;-95
2023/10/19 09:56:15;;;;;;;;;;;;;;;15.68;100.00;99144.22;5057599;28;20420;-95
2023/10/19 09:58:53;;;;;;;;;;;;;;;15.68;100.00;99132.84;5057783;28;19947;-94
2023/10/19 10:01:21;;;;;;;;;;;;;;;15.69;100.00;99122.31;5056898;28;19912;-95
2023/10/19 10:03:53;;;;;;;;;;;;;;;15.73;100.00;99123.97;5075256;28;19916;-95
2023/10/19 10:06:27;;;;;;;;;;;;;;;15.77;100.00;99109.84;5057177;28;19916;-94
2023/10/19 10:08:53;;;;;;;;;;;;;;;15.80;100.00;99115.06;5090746;28;20278;-95
2023/10/19 10:11:23;;;;;;;;;;;;;;;15.83;100.00;99119.38;5076101;28;19917;-94
2023/10/19 10:13:52;;;;;;;;;;;;;;;15.91;100.00;99119.16;5077608;28;19995;-94
2023/10/19 10:16:18;;;;;;;;;;;;;;;15.93;100.00;99117.34;5076819;28;19920;-94
2023/10/19 10:18:45;;;;;;;;;;;;;;;15.98;100.00;99131.25;5077318;28;19943;-95
2023/10/19 10:21:11;;;;;;;;;;;;;;;16.02;100.00;99132.88;5077386;28;19912;-96
2023/10/19 10:23:40;;;;;;;;;;;;;;;16.07;100.00;99127.50;5077508;28;20354;-95
2023/10/19 10:26:09;;;;;;;;;;;;;;;16.12;100.00;99131.75;5076688;28;19920;-96
2023/10/19 10:28:35;;;;;;;;;;;;;;;16.15;100.00;99131.66;5077327;28;20355;-95
2023/10/19 10:31:40;;;;;;;;;;;;;;;16.23;100.00;99133.22;5075504;28;20392;-95
2023/10/19 10:34:08;;;;;;;;;;;;;;;16.26;100.00;99130.50;5067926;28;19920;-91
2023/10/19 10:36:53;;;;;;;;;;;;;;;16.29;100.00;99127.78;5042051;28;20043;-91
2023/10/19 10:39:19;;;;;;;;;;;;;;;16.31;100.00;99126.00;5008361;28;19916;-91
2023/10/19 10:41:45;;;;;;;;;;;;;;;16.32;100.00;99127.69;5039355;28;19919;-91
2023/10/19 10:44:33;;;;;;;;;;;;;;;;;;;;;
2023/10/19 10:47:01;;;;;;;;;;;;;;;16.36;100.00;99128.47;5057808;28;19912;-96
2023/10/19 10:49:33;;;;;;;;;;;;;;;16.40;100.00;99130.97;5045892;28;19920;-96
2023/10/19 10:52:00;;;;;;;;;;;;;;;16.47;100.00;99131.69;5050085;28;19917;-96
2023/10/19 10:54:26;;;;;;;;;;;;;;;16.54;100.00;99127.09;5030377;28;20364;-95
2023/10/19 10:56:57;;;;;;;;;;;;;;;16.55;100.00;99134.09;5047611;28;19919;-95
2023/10/19 10:59:22;;;;;;;;;;;;;;;16.56;100.00;99141.06;5059447;28;20427;-96
2023/10/19 11:01:50;;;;;;;;;;;;;;;16.55;100.00;99134.94;5043674;28;19964;-96
2023/10/19 11:04:16;;;;;;;;;;;;;;;16.54;100.00;99132.34;5042837;28;20505;-96
2023/10/19 11:09:28;;;;;;;;;;;;;;;16.50;100.00;99115.81;5038153;26;19952;-95
2023/10/19 11:12:02;;;;;;;;;;;;;;;16.50;100.00;99111.41;5038192;28;19921;-96
2023/10/19 11:14:32;;;;;;;;;;;;;;;16.49;100.00;99101.78;5023184;28;19921;-96
2023/10/19 11:17:11;;;;;;;;;;;;;;;16.53;100.00;99115.72;5024437;28;19917;-96
2023/10/19 11:19:40;;;;;;;;;;;;;;;16.54;100.00;99100.78;5024913;28;19917;-96
2023/10/19 11:22:11;;;;;;;;;;;;;;;16.55;100.00;99092.88;5025191;28;19940;-95
2023/10/19 11:24:53;;;;;;;;;;;;;;;;;;;;;
2023/10/19 11:27:54;;;;;;;;;;;;;;;16.66;100.00;99095.19;5040696;28;19984;-96
2023/10/19 11:30:26;;;;;;;;;;;;;;;16.71;100.00;99081.91;5021023;28;19913;-95
2023/10/19 11:33:01;;;;;;;;;;;;;;;16.77;100.00;99085.22;5023868;28;19949;-96
2023/10/19 11:35:29;;;;;;;;;;;;;;;16.81;100.00;99084.19;5024926;28;19996;-96
2023/10/19 11:37:58;;;;;;;;;;;;;;;16.83;100.00;99077.13;5022130;28;20008;-96
2023/10/19 11:40:25;;;;;;;;;;;;;;;16.86;100.00;99073.56;5021213;28;19917;-95
2023/10/19 11:42:56;;;;;;;;;;;;;;;16.86;100.00;99071.78;5021832;28;19920;-96
2023/10/19 11:45:31;;;;;;;;;;;;;;;16.86;100.00;99071.78;5023447;28;19921;-96
2023/10/19 11:48:07;;;;;;;;;;;;;;;16.84;100.00;99072.72;5026607;28;19909;-96
2023/10/19 11:50:33;;;;;;;;;;;;;;;16.78;100.00;99057.13;5024962;28;19920;-96
2023/10/19 11:53:01;;;;;;;;;;;;;;;16.75;100.00;99063.34;5028212;28;19913;-95
2023/10/19 11:55:29;;;;;;;;;;;;;;;16.73;100.00;99065.19;5031576;28;20403;-96
2023/10/19 11:57:57;;;;;;;;;;;;;;;16.69;100.00;99074.91;5028280;28;19920;-96
2023/10/19 12:00:33;;;;;;;;;;;;;;;16.67;100.00;99060.97;5027641;28;19913;-96
2023/10/19 12:02:59;;;;;;;;;;;;;;;16.66;100.00;99063.63;5024916;28;20326;-96
2023/10/19 12:05:39;;;;;;;;;;;;;;;16.61;100.00;99068.16;5026452;28;19913;-96
2023/10/19 12:08:07;;;;;;;;;;;;;;;16.56;100.00;99068.31;5030272;23;19956;-96
2023/10/19 12:10:35;;;;;;;;;;;;;;;16.56;100.00;99068.31;5026354;28;19942;-96
2023/10/19 12:13:08;;;;;;;;;;;;;;;16.55;100.00;99063.09;5028915;28;19917;-96
2023/10/19 12:15:33;;;;;;;;;;;;;;;16.55;100.00;99057.84;5031104;28;19917;-95
2023/10/19 12:18:01;;;;;;;;;;;;;;;16.54;100.00;99059.63;5029101;28;19955;-96
2023/10/19 12:20:35;;;;;;;;;;;;;;;16.52;100.00;99057.03;5026030;28;19917;-96
2023/10/19 12:23:00;;;;;;;;;;;;;;;16.49;100.00;99061.50;5028902;28;19923;-96
2023/10/19 12:25:29;;;;;;;;;;;;;;;16.48;100.00;99055.41;5030841;28;19945;-96
2023/10/19 12:27:55;;;;;;;;;;;;;;;16.48;100.00;99060.66;5033433;28;19917;-96
2023/10/19 12:30:32;;;;;;;;;;;;;;;16.49;100.00;99051.84;5037352;28;19971;-96
2023/10/19 12:33:04;;;;;;;;;;;;;;;16.51;100.00;99055.28;5020754;28;19925;-96
2023/10/19 12:38:34;;;;;;;;;;;;;;;16.50;100.00;99064.09;5038264;28;19928;-96
2023/10/19 12:41:07;;;;;;;;;;;;;;;16.50;100.00;99057.97;5025385;28;19924;-96
2023/10/19 12:43:34;;;;;;;;;;;;;;;16.49;100.00;99050.97;5031742;28;20417;-96
2023/10/19 12:46:03;;;;;;;;;;;;;;;16.47;100.00;99043.16;5025925;28;19917;-96
2023/10/19 12:48:33;;;;;;;;;;;;;;;16.43;100.00;99045.91;5024150;28;19925;-96
2023/10/19 12:51:03;;;;;;;;;;;;;;;16.41;100.00;99042.44;5024134;28;19928;-96
2023/10/19 12:53:28;;;;;;;;;;;;;;;16.39;100.00;99034.63;5021493;28;19971;-96
2023/10/19 12:55:54;;;;;;;;;;;;;;;16.37;100.00;99028.56;5017661;28;19917;-96
2023/10/19 12:58:22;;;;;;;;;;;;;;;16.37;100.00;99022.44;5019329;28;19917;-96
2023/10/19 13:00:48;;;;;;;;;;;;;;;16.35;100.00;99025.09;5020908;28;20379;-96